sensor_id;sensor_type;location;lat;lon;timestamp;P1;durP1;ratioP1;P2;durP2;ratioP2
25982;SDS011;13773;48.868;10.730;2023-02-11T00:02:02;44.37;;;25.10;;
25982;SDS011;13773;48.868;10.730;2023-02-11T00:04:29;46.50;;;24.83;;
25982;SDS011;13773;48.868;10.730;2023-02-11T00:06:55;43.37;;;25.00;;
25982;SDS011;13773;48.868;10.730;2023-02-11T00:09:21;46.27;;;24.60;;
25982;SDS011;13773;48.868;10.730;2023-02-11T00:11:46;45.47;;;24.10;;
25982;SDS011;13773;48.868;10.730;2023-02-11T00:14:12;41.97;;;23.53;;
25982;SDS011;13773;48.868;10.730;2023-02-11T00:16:38;41.63;;;23.93;;
25982;SDS011;13773;48.868;10.730;2023-02-11T00:19:04;45.97;;;24.73;;
25982;SDS011;13773;48.868;10.730;2023-02-11T00:21:30;45.40;;;25.50;;
25982;SDS011;13773;48.868;10.730;2023-02-11T00:23:57;41.50;;;24.40;;
25982;SDS011;13773;48.868;10.730;2023-02-11T00:26:24;42.93;;;25.30;;
25982;SDS011;13773;48.868;10.730;2023-02-11T00:28:53;42.93;;;24.97;;
25982;SDS011;13773;48.868;10.730;2023-02-11T00:31:19;42.13;;;24.50;;
25982;SDS011;13773;48.868;10.730;2023-02-11T00:33:46;43.17;;;25.47;;
25982;SDS011;13773;48.868;10.730;2023-02-11T00:36:14;42.57;;;24.67;;
25982;SDS011;13773;48.868;10.730;2023-02-11T00:38:50;44.00;;;24.17;;
25982;SDS011;13773;48.868;10.730;2023-02-11T00:41:17;44.70;;;24.87;;
25982;SDS011;13773;48.868;10.730;2023-02-11T00:43:43;40.70;;;23.07;;
25982;SDS011;13773;48.868;10.730;2023-02-11T00:46:09;43.83;;;25.13;;
25982;SDS011;13773;48.868;10.730;2023-02-11T00:48:35;45.50;;;24.63;;
25982;SDS011;13773;48.868;10.730;2023-02-11T00:51:01;47.03;;;25.70;;
25982;SDS011;13773;48.868;10.730;2023-02-11T00:53:28;45.43;;;24.03;;
25982;SDS011;13773;48.868;10.730;2023-02-11T00:55:54;45.27;;;23.30;;
25982;SDS011;13773;48.868;10.730;2023-02-11T00:58:19;41.90;;;22.83;;
25982;SDS011;13773;48.868;10.730;2023-02-11T01:00:46;42.93;;;25.10;;
25982;SDS011;13773;48.868;10.730;2023-02-11T01:03:12;42.10;;;23.90;;
25982;SDS011;13773;48.868;10.730;2023-02-11T01:05:38;45.17;;;24.43;;
25982;SDS011;13773;48.868;10.730;2023-02-11T01:08:04;43.73;;;24.57;;
25982;SDS011;13773;48.868;10.730;2023-02-11T01:10:30;42.77;;;23.57;;
25982;SDS011;13773;48.868;10.730;2023-02-11T01:12:56;41.00;;;23.97;;
25982;SDS011;13773;48.868;10.730;2023-02-11T01:15:21;44.43;;;24.47;;
25982;SDS011;13773;48.868;10.730;2023-02-11T01:17:47;41.10;;;23.90;;
25982;SDS011;13773;48.868;10.730;2023-02-11T01:20:14;42.23;;;23.70;;
25982;SDS011;13773;48.868;10.730;2023-02-11T01:22:41;42.77;;;24.57;;
25982;SDS011;13773;48.868;10.730;2023-02-11T01:25:07;39.60;;;22.13;;
25982;SDS011;13773;48.868;10.730;2023-02-11T01:27:33;41.40;;;22.57;;
25982;SDS011;13773;48.868;10.730;2023-02-11T01:30:00;45.20;;;23.27;;
25982;SDS011;13773;48.868;10.730;2023-02-11T01:32:26;46.33;;;24.63;;
25982;SDS011;13773;48.868;10.730;2023-02-11T01:34:52;44.30;;;24.53;;
25982;SDS011;13773;48.868;10.730;2023-02-11T01:37:17;46.03;;;24.60;;
25982;SDS011;13773;48.868;10.730;2023-02-11T01:39:43;45.00;;;23.93;;
25982;SDS011;13773;48.868;10.730;2023-02-11T01:42:15;40.13;;;23.07;;
25982;SDS011;13773;48.868;10.730;2023-02-11T01:44:47;40.13;;;22.80;;
25982;SDS011;13773;48.868;10.730;2023-02-11T01:47:15;41.87;;;23.97;;
25982;SDS011;13773;48.868;10.730;2023-02-11T01:49:59;42.60;;;23.77;;
25982;SDS011;13773;48.868;10.730;2023-02-11T01:52:30;46.07;;;25.07;;
25982;SDS011;13773;48.868;10.730;2023-02-11T01:55:08;46.10;;;24.20;;
25982;SDS011;13773;48.868;10.730;2023-02-11T01:57:55;43.33;;;23.70;;
25982;SDS011;13773;48.868;10.730;2023-02-11T02:00:34;44.50;;;24.53;;
25982;SDS011;13773;48.868;10.730;2023-02-11T02:08:51;41.87;;;22.60;;
25982;SDS011;13773;48.868;10.730;2023-02-11T02:11:39;45.60;;;22.73;;
25982;SDS011;13773;48.868;10.730;2023-02-11T02:14:05;42.53;;;24.67;;
25982;SDS011;13773;48.868;10.730;2023-02-11T02:16:32;38.60;;;22.63;;
25982;SDS011;13773;48.868;10.730;2023-02-11T02:30:59;39.23;;;22.47;;
25982;SDS011;13773;48.868;10.730;2023-02-11T02:34:05;41.70;;;21.77;;
25982;SDS011;13773;48.868;10.730;2023-02-11T02:36:59;41.33;;;23.13;;
25982;SDS011;13773;48.868;10.730;2023-02-11T02:39:36;37.57;;;20.70;;
25982;SDS011;13773;48.868;10.730;2023-02-11T02:42:03;38.60;;;20.80;;
25982;SDS011;13773;48.868;10.730;2023-02-11T02:44:30;36.20;;;21.43;;
25982;SDS011;13773;48.868;10.730;2023-02-11T02:46:56;40.97;;;22.80;;
25982;SDS011;13773;48.868;10.730;2023-02-11T02:49:22;39.43;;;21.70;;
25982;SDS011;13773;48.868;10.730;2023-02-11T02:52:09;38.30;;;20.90;;
25982;SDS011;13773;48.868;10.730;2023-02-11T02:54:55;38.90;;;19.83;;
25982;SDS011;13773;48.868;10.730;2023-02-11T03:00:18;42.20;;;22.13;;
25982;SDS011;13773;48.868;10.730;2023-02-11T03:06:05;35.77;;;21.07;;
25982;SDS011;13773;48.868;10.730;2023-02-11T03:09:13;34.63;;;20.13;;
25982;SDS011;13773;48.868;10.730;2023-02-11T03:11:38;41.33;;;21.60;;
25982;SDS011;13773;48.868;10.730;2023-02-11T03:14:05;36.60;;;21.77;;
25982;SDS011;13773;48.868;10.730;2023-02-11T03:16:34;38.53;;;20.90;;
25982;SDS011;13773;48.868;10.730;2023-02-11T03:19:14;40.40;;;21.43;;
25982;SDS011;13773;48.868;10.730;2023-02-11T03:21:44;37.50;;;21.37;;
25982;SDS011;13773;48.868;10.730;2023-02-11T03:24:19;37.60;;;23.37;;
25982;SDS011;13773;48.868;10.730;2023-02-11T03:26:53;38.00;;;21.83;;
25982;SDS011;13773;48.868;10.730;2023-02-11T03:29:25;37.83;;;22.87;;
25982;SDS011;13773;48.868;10.730;2023-02-11T03:32:02;40.77;;;22.77;;
25982;SDS011;13773;48.868;10.730;2023-02-11T03:34:41;43.03;;;22.77;;
25982;SDS011;13773;48.868;10.730;2023-02-11T03:39:55;37.80;;;21.93;;
25982;SDS011;13773;48.868;10.730;2023-02-11T03:42:26;41.23;;;21.90;;
25982;SDS011;13773;48.868;10.730;2023-02-11T03:44:58;38.23;;;22.13;;
25982;SDS011;13773;48.868;10.730;2023-02-11T03:47:31;35.07;;;20.23;;
25982;SDS011;13773;48.868;10.730;2023-02-11T03:50:01;37.40;;;21.27;;
25982;SDS011;13773;48.868;10.730;2023-02-11T03:52:30;35.90;;;22.23;;
25982;SDS011;13773;48.868;10.730;2023-02-11T03:54:58;41.77;;;22.97;;
25982;SDS011;13773;48.868;10.730;2023-02-11T03:57:25;39.83;;;21.90;;
25982;SDS011;13773;48.868;10.730;2023-02-11T03:59:55;38.70;;;21.70;;
25982;SDS011;13773;48.868;10.730;2023-02-11T04:02:23;34.23;;;20.73;;
25982;SDS011;13773;48.868;10.730;2023-02-11T04:04:52;39.43;;;21.63;;
25982;SDS011;13773;48.868;10.730;2023-02-11T04:07:18;42.03;;;22.30;;
25982;SDS011;13773;48.868;10.730;2023-02-11T04:09:43;40.13;;;22.23;;
25982;SDS011;13773;48.868;10.730;2023-02-11T04:12:09;37.13;;;21.17;;
25982;SDS011;13773;48.868;10.730;2023-02-11T04:14:35;40.37;;;22.83;;
25982;SDS011;13773;48.868;10.730;2023-02-11T04:17:01;38.90;;;21.97;;
25982;SDS011;13773;48.868;10.730;2023-02-11T04:19:27;37.20;;;21.20;;
25982;SDS011;13773;48.868;10.730;2023-02-11T04:21:53;41.30;;;21.70;;
25982;SDS011;13773;48.868;10.730;2023-02-11T04:24:18;35.50;;;20.07;;
25982;SDS011;13773;48.868;10.730;2023-02-11T04:26:44;35.67;;;21.57;;
25982;SDS011;13773;48.868;10.730;2023-02-11T04:29:10;41.77;;;21.23;;
25982;SDS011;13773;48.868;10.730;2023-02-11T04:31:35;38.63;;;21.43;;
25982;SDS011;13773;48.868;10.730;2023-02-11T04:34:01;38.93;;;21.90;;
25982;SDS011;13773;48.868;10.730;2023-02-11T04:36:27;35.50;;;21.33;;
25982;SDS011;13773;48.868;10.730;2023-02-11T04:38:52;37.13;;;21.13;;
25982;SDS011;13773;48.868;10.730;2023-02-11T04:41:18;36.50;;;20.50;;
25982;SDS011;13773;48.868;10.730;2023-02-11T04:43:44;39.63;;;21.10;;
25982;SDS011;13773;48.868;10.730;2023-02-11T04:46:09;34.73;;;21.73;;
25982;SDS011;13773;48.868;10.730;2023-02-11T04:48:35;37.97;;;22.50;;
25982;SDS011;13773;48.868;10.730;2023-02-11T04:51:01;36.03;;;21.80;;
25982;SDS011;13773;48.868;10.730;2023-02-11T04:53:27;35.67;;;20.73;;
25982;SDS011;13773;48.868;10.730;2023-02-11T04:55:52;36.23;;;21.00;;
25982;SDS011;13773;48.868;10.730;2023-02-11T04:58:18;37.93;;;21.90;;
25982;SDS011;13773;48.868;10.730;2023-02-11T05:00:45;33.23;;;20.97;;
25982;SDS011;13773;48.868;10.730;2023-02-11T05:03:10;33.93;;;20.93;;
25982;SDS011;13773;48.868;10.730;2023-02-11T05:05:37;32.60;;;20.47;;
25982;SDS011;13773;48.868;10.730;2023-02-11T05:08:04;34.83;;;20.47;;
25982;SDS011;13773;48.868;10.730;2023-02-11T05:10:30;37.10;;;20.00;;
25982;SDS011;13773;48.868;10.730;2023-02-11T05:12:56;34.83;;;21.37;;
25982;SDS011;13773;48.868;10.730;2023-02-11T05:15:22;35.83;;;20.20;;
25982;SDS011;13773;48.868;10.730;2023-02-11T05:17:47;34.07;;;20.90;;
25982;SDS011;13773;48.868;10.730;2023-02-11T05:20:14;32.70;;;19.90;;
25982;SDS011;13773;48.868;10.730;2023-02-11T05:22:39;33.43;;;19.40;;
25982;SDS011;13773;48.868;10.730;2023-02-11T05:25:05;34.70;;;20.87;;
25982;SDS011;13773;48.868;10.730;2023-02-11T05:27:31;34.90;;;19.70;;
25982;SDS011;13773;48.868;10.730;2023-02-11T05:29:57;31.83;;;18.67;;
25982;SDS011;13773;48.868;10.730;2023-02-11T05:32:22;31.23;;;19.70;;
25982;SDS011;13773;48.868;10.730;2023-02-11T05:34:48;28.07;;;17.77;;
25982;SDS011;13773;48.868;10.730;2023-02-11T05:37:14;31.03;;;18.63;;
25982;SDS011;13773;48.868;10.730;2023-02-11T05:39:40;29.50;;;18.50;;
25982;SDS011;13773;48.868;10.730;2023-02-11T05:42:06;32.77;;;19.03;;
25982;SDS011;13773;48.868;10.730;2023-02-11T05:44:31;31.90;;;18.63;;
25982;SDS011;13773;48.868;10.730;2023-02-11T05:46:57;28.63;;;18.27;;
25982;SDS011;13773;48.868;10.730;2023-02-11T05:49:23;27.83;;;18.30;;
25982;SDS011;13773;48.868;10.730;2023-02-11T05:51:48;30.10;;;18.77;;
25982;SDS011;13773;48.868;10.730;2023-02-11T05:54:14;29.60;;;17.83;;
25982;SDS011;13773;48.868;10.730;2023-02-11T05:56:40;28.27;;;17.90;;
25982;SDS011;13773;48.868;10.730;2023-02-11T05:59:06;30.40;;;18.53;;
25982;SDS011;13773;48.868;10.730;2023-02-11T06:01:32;29.20;;;17.87;;
25982;SDS011;13773;48.868;10.730;2023-02-11T06:03:57;28.90;;;17.63;;
25982;SDS011;13773;48.868;10.730;2023-02-11T06:06:24;26.37;;;17.67;;
25982;SDS011;13773;48.868;10.730;2023-02-11T06:08:50;26.23;;;16.63;;
25982;SDS011;13773;48.868;10.730;2023-02-11T06:11:16;32.13;;;19.30;;
25982;SDS011;13773;48.868;10.730;2023-02-11T06:13:41;29.80;;;18.23;;
25982;SDS011;13773;48.868;10.730;2023-02-11T06:16:07;30.40;;;17.77;;
25982;SDS011;13773;48.868;10.730;2023-02-11T06:18:33;29.43;;;18.07;;
25982;SDS011;13773;48.868;10.730;2023-02-11T06:20:59;31.47;;;18.20;;
25982;SDS011;13773;48.868;10.730;2023-02-11T06:23:25;27.53;;;17.67;;
25982;SDS011;13773;48.868;10.730;2023-02-11T06:25:51;29.37;;;19.33;;
25982;SDS011;13773;48.868;10.730;2023-02-11T06:28:17;27.50;;;18.80;;
25982;SDS011;13773;48.868;10.730;2023-02-11T06:30:43;30.60;;;18.40;;
25982;SDS011;13773;48.868;10.730;2023-02-11T06:33:08;30.20;;;18.87;;
25982;SDS011;13773;48.868;10.730;2023-02-11T06:35:36;30.03;;;18.57;;
25982;SDS011;13773;48.868;10.730;2023-02-11T06:38:03;32.73;;;18.93;;
25982;SDS011;13773;48.868;10.730;2023-02-11T06:40:29;32.97;;;19.90;;
25982;SDS011;13773;48.868;10.730;2023-02-11T06:42:54;32.70;;;19.93;;
25982;SDS011;13773;48.868;10.730;2023-02-11T06:45:20;36.47;;;20.57;;
25982;SDS011;13773;48.868;10.730;2023-02-11T06:47:46;34.67;;;20.73;;
25982;SDS011;13773;48.868;10.730;2023-02-11T06:50:12;29.73;;;18.50;;
25982;SDS011;13773;48.868;10.730;2023-02-11T06:52:39;27.33;;;18.07;;
25982;SDS011;13773;48.868;10.730;2023-02-11T06:55:05;29.17;;;18.90;;
25982;SDS011;13773;48.868;10.730;2023-02-11T06:57:31;30.40;;;18.60;;
25982;SDS011;13773;48.868;10.730;2023-02-11T06:59:56;29.30;;;18.20;;
25982;SDS011;13773;48.868;10.730;2023-02-11T07:02:22;30.13;;;18.73;;
25982;SDS011;13773;48.868;10.730;2023-02-11T07:04:48;26.67;;;18.00;;
25982;SDS011;13773;48.868;10.730;2023-02-11T07:07:13;35.57;;;20.20;;
25982;SDS011;13773;48.868;10.730;2023-02-11T07:09:39;31.13;;;19.37;;
25982;SDS011;13773;48.868;10.730;2023-02-11T07:12:05;27.87;;;19.00;;
25982;SDS011;13773;48.868;10.730;2023-02-11T07:14:33;29.13;;;17.97;;
25982;SDS011;13773;48.868;10.730;2023-02-11T07:16:58;31.47;;;19.27;;
25982;SDS011;13773;48.868;10.730;2023-02-11T07:19:24;29.47;;;18.77;;
25982;SDS011;13773;48.868;10.730;2023-02-11T07:21:50;31.60;;;18.77;;
25982;SDS011;13773;48.868;10.730;2023-02-11T07:24:15;36.17;;;22.10;;
25982;SDS011;13773;48.868;10.730;2023-02-11T07:26:41;35.37;;;21.00;;
25982;SDS011;13773;48.868;10.730;2023-02-11T07:29:07;31.50;;;19.43;;
25982;SDS011;13773;48.868;10.730;2023-02-11T07:31:32;30.33;;;18.33;;
25982;SDS011;13773;48.868;10.730;2023-02-11T07:33:59;29.60;;;19.13;;
25982;SDS011;13773;48.868;10.730;2023-02-11T07:36:26;29.90;;;19.27;;
25982;SDS011;13773;48.868;10.730;2023-02-11T07:38:53;27.77;;;17.43;;
25982;SDS011;13773;48.868;10.730;2023-02-11T07:41:20;33.33;;;20.13;;
25982;SDS011;13773;48.868;10.730;2023-02-11T07:43:47;30.97;;;19.90;;
25982;SDS011;13773;48.868;10.730;2023-02-11T07:46:20;29.57;;;19.47;;
25982;SDS011;13773;48.868;10.730;2023-02-11T07:48:48;29.73;;;18.37;;
25982;SDS011;13773;48.868;10.730;2023-02-11T07:51:15;26.00;;;17.63;;
25982;SDS011;13773;48.868;10.730;2023-02-11T07:53:42;28.30;;;18.80;;
25982;SDS011;13773;48.868;10.730;2023-02-11T07:56:09;32.83;;;19.90;;
25982;SDS011;13773;48.868;10.730;2023-02-11T07:58:35;29.13;;;18.53;;
25982;SDS011;13773;48.868;10.730;2023-02-11T08:01:02;29.87;;;19.20;;
25982;SDS011;13773;48.868;10.730;2023-02-11T08:03:29;28.57;;;18.57;;
25982;SDS011;13773;48.868;10.730;2023-02-11T08:05:55;28.80;;;18.23;;
25982;SDS011;13773;48.868;10.730;2023-02-11T08:08:20;26.63;;;18.00;;
25982;SDS011;13773;48.868;10.730;2023-02-11T08:10:46;28.93;;;17.17;;
25982;SDS011;13773;48.868;10.730;2023-02-11T08:13:12;29.00;;;18.40;;
25982;SDS011;13773;48.868;10.730;2023-02-11T08:15:38;27.63;;;17.60;;
25982;SDS011;13773;48.868;10.730;2023-02-11T08:18:03;27.37;;;17.90;;
25982;SDS011;13773;48.868;10.730;2023-02-11T08:20:29;26.07;;;17.83;;
25982;SDS011;13773;48.868;10.730;2023-02-11T08:22:55;30.60;;;21.03;;
25982;SDS011;13773;48.868;10.730;2023-02-11T08:25:20;26.20;;;18.50;;
25982;SDS011;13773;48.868;10.730;2023-02-11T08:27:46;31.50;;;20.10;;
25982;SDS011;13773;48.868;10.730;2023-02-11T08:30:12;31.33;;;19.43;;
25982;SDS011;13773;48.868;10.730;2023-02-11T08:32:38;34.30;;;21.67;;
25982;SDS011;13773;48.868;10.730;2023-02-11T08:35:04;34.87;;;21.87;;
25982;SDS011;13773;48.868;10.730;2023-02-11T08:37:32;31.93;;;21.17;;
25982;SDS011;13773;48.868;10.730;2023-02-11T08:39:58;32.40;;;21.70;;
25982;SDS011;13773;48.868;10.730;2023-02-11T08:42:24;33.30;;;21.63;;
25982;SDS011;13773;48.868;10.730;2023-02-11T08:44:50;35.37;;;23.17;;
25982;SDS011;13773;48.868;10.730;2023-02-11T08:47:16;33.40;;;22.87;;
25982;SDS011;13773;48.868;10.730;2023-02-11T08:49:41;31.13;;;21.60;;
25982;SDS011;13773;48.868;10.730;2023-02-11T08:52:07;25.63;;;18.87;;
25982;SDS011;13773;48.868;10.730;2023-02-11T08:54:33;29.30;;;19.40;;
25982;SDS011;13773;48.868;10.730;2023-02-11T08:56:59;28.90;;;18.97;;
25982;SDS011;13773;48.868;10.730;2023-02-11T08:59:26;29.07;;;17.63;;
25982;SDS011;13773;48.868;10.730;2023-02-11T09:01:51;25.57;;;17.60;;
25982;SDS011;13773;48.868;10.730;2023-02-11T09:04:17;24.87;;;17.60;;
25982;SDS011;13773;48.868;10.730;2023-02-11T09:06:43;25.40;;;17.17;;
25982;SDS011;13773;48.868;10.730;2023-02-11T09:09:10;28.43;;;17.20;;
25982;SDS011;13773;48.868;10.730;2023-02-11T09:11:38;24.07;;;16.23;;
25982;SDS011;13773;48.868;10.730;2023-02-11T09:14:05;24.03;;;16.80;;
25982;SDS011;13773;48.868;10.730;2023-02-11T09:16:34;27.80;;;16.30;;
25982;SDS011;13773;48.868;10.730;2023-02-11T09:19:01;28.43;;;17.43;;
25982;SDS011;13773;48.868;10.730;2023-02-11T09:21:28;21.43;;;14.97;;
25982;SDS011;13773;48.868;10.730;2023-02-11T09:23:54;27.33;;;17.37;;
25982;SDS011;13773;48.868;10.730;2023-02-11T09:26:21;22.20;;;15.67;;
25982;SDS011;13773;48.868;10.730;2023-02-11T09:28:55;26.83;;;17.10;;
25982;SDS011;13773;48.868;10.730;2023-02-11T09:31:22;22.23;;;15.00;;
25982;SDS011;13773;48.868;10.730;2023-02-11T09:33:50;19.83;;;13.33;;
25982;SDS011;13773;48.868;10.730;2023-02-11T09:36:21;22.97;;;14.57;;
25982;SDS011;13773;48.868;10.730;2023-02-11T09:38:49;18.27;;;13.03;;
25982;SDS011;13773;48.868;10.730;2023-02-11T09:44:23;16.37;;;12.17;;
25982;SDS011;13773;48.868;10.730;2023-02-11T09:46:58;16.90;;;12.80;;
25982;SDS011;13773;48.868;10.730;2023-02-11T09:49:49;18.00;;;12.00;;
25982;SDS011;13773;48.868;10.730;2023-02-11T09:52:23;18.90;;;12.67;;
25982;SDS011;13773;48.868;10.730;2023-02-11T09:54:57;18.50;;;12.73;;
25982;SDS011;13773;48.868;10.730;2023-02-11T09:57:25;20.70;;;13.10;;
25982;SDS011;13773;48.868;10.730;2023-02-11T09:59:58;17.60;;;13.43;;
25982;SDS011;13773;48.868;10.730;2023-02-11T10:08:01;17.53;;;11.67;;
25982;SDS011;13773;48.868;10.730;2023-02-11T10:24:34;16.73;;;11.43;;
25982;SDS011;13773;48.868;10.730;2023-02-11T10:27:03;17.23;;;11.77;;
25982;SDS011;13773;48.868;10.730;2023-02-11T10:29:43;15.77;;;10.77;;
25982;SDS011;13773;48.868;10.730;2023-02-11T10:34:48;14.07;;;9.93;;
25982;SDS011;13773;48.868;10.730;2023-02-11T10:37:14;13.43;;;9.37;;
25982;SDS011;13773;48.868;10.730;2023-02-11T10:39:40;14.47;;;8.60;;
25982;SDS011;13773;48.868;10.730;2023-02-11T10:42:10;15.27;;;9.63;;
25982;SDS011;13773;48.868;10.730;2023-02-11T10:44:37;12.50;;;9.33;;
25982;SDS011;13773;48.868;10.730;2023-02-11T10:47:16;12.37;;;8.87;;
25982;SDS011;13773;48.868;10.730;2023-02-11T10:49:45;15.67;;;9.70;;
25982;SDS011;13773;48.868;10.730;2023-02-11T10:52:19;14.47;;;9.50;;
25982;SDS011;13773;48.868;10.730;2023-02-11T10:55:13;12.97;;;9.23;;
25982;SDS011;13773;48.868;10.730;2023-02-11T10:57:42;14.87;;;10.30;;
25982;SDS011;13773;48.868;10.730;2023-02-11T11:02:54;15.23;;;10.47;;
25982;SDS011;13773;48.868;10.730;2023-02-11T11:05:29;15.93;;;10.13;;
25982;SDS011;13773;48.868;10.730;2023-02-11T11:08:09;15.23;;;10.10;;
25982;SDS011;13773;48.868;10.730;2023-02-11T11:10:41;13.50;;;9.43;;
25982;SDS011;13773;48.868;10.730;2023-02-11T11:13:23;11.73;;;8.67;;
25982;SDS011;13773;48.868;10.730;2023-02-11T11:16:07;10.63;;;7.83;;
25982;SDS011;13773;48.868;10.730;2023-02-11T11:18:36;13.27;;;9.03;;
25982;SDS011;13773;48.868;10.730;2023-02-11T11:21:22;12.90;;;8.53;;
25982;SDS011;13773;48.868;10.730;2023-02-11T11:23:56;13.43;;;8.63;;
25982;SDS011;13773;48.868;10.730;2023-02-11T11:26:24;12.93;;;9.10;;
25982;SDS011;13773;48.868;10.730;2023-02-11T11:29:08;13.50;;;8.43;;
25982;SDS011;13773;48.868;10.730;2023-02-11T11:34:39;13.53;;;9.50;;
25982;SDS011;13773;48.868;10.730;2023-02-11T11:37:25;13.33;;;9.27;;
25982;SDS011;13773;48.868;10.730;2023-02-11T11:39:56;13.50;;;9.63;;
25982;SDS011;13773;48.868;10.730;2023-02-11T11:42:35;16.43;;;9.87;;
25982;SDS011;13773;48.868;10.730;2023-02-11T11:52:57;12.17;;;9.20;;
25982;SDS011;13773;48.868;10.730;2023-02-11T11:55:39;13.43;;;8.93;;
25982;SDS011;13773;48.868;10.730;2023-02-11T11:58:15;12.57;;;8.73;;
25982;SDS011;13773;48.868;10.730;2023-02-11T12:00:48;16.80;;;10.70;;
25982;SDS011;13773;48.868;10.730;2023-02-11T12:06:07;14.47;;;10.30;;
25982;SDS011;13773;48.868;10.730;2023-02-11T12:20:15;17.23;;;11.37;;
25982;SDS011;13773;48.868;10.730;2023-02-11T12:22:56;16.63;;;10.80;;
25982;SDS011;13773;48.868;10.730;2023-02-11T12:25:59;18.00;;;10.97;;
25982;SDS011;13773;48.868;10.730;2023-02-11T12:28:37;17.23;;;11.57;;
25982;SDS011;13773;48.868;10.730;2023-02-11T12:36:39;15.80;;;11.60;;
25982;SDS011;13773;48.868;10.730;2023-02-11T12:51:30;14.87;;;10.90;;
25982;SDS011;13773;48.868;10.730;2023-02-11T12:54:19;13.47;;;10.67;;
25982;SDS011;13773;48.868;10.730;2023-02-11T12:56:55;14.57;;;11.23;;
25982;SDS011;13773;48.868;10.730;2023-02-11T13:05:27;16.17;;;11.40;;
25982;SDS011;13773;48.868;10.730;2023-02-11T13:08:18;15.27;;;11.27;;
25982;SDS011;13773;48.868;10.730;2023-02-11T13:11:03;14.83;;;11.83;;
25982;SDS011;13773;48.868;10.730;2023-02-11T13:19:42;17.40;;;12.67;;
25982;SDS011;13773;48.868;10.730;2023-02-11T13:33:16;17.77;;;11.40;;
25982;SDS011;13773;48.868;10.730;2023-02-11T13:35:44;18.33;;;11.77;;
25982;SDS011;13773;48.868;10.730;2023-02-11T13:38:20;16.77;;;11.40;;
25982;SDS011;13773;48.868;10.730;2023-02-11T13:41:32;14.53;;;11.03;;
25982;SDS011;13773;48.868;10.730;2023-02-11T13:43:40;15.53;;;10.97;;
25982;SDS011;13773;48.868;10.730;2023-02-11T13:46:07;14.50;;;12.03;;
25982;SDS011;13773;48.868;10.730;2023-02-11T13:48:47;16.60;;;12.37;;
25982;SDS011;13773;48.868;10.730;2023-02-11T13:51:15;15.17;;;11.87;;
25982;SDS011;13773;48.868;10.730;2023-02-11T14:05:29;16.47;;;11.90;;
25982;SDS011;13773;48.868;10.730;2023-02-11T14:16:18;18.60;;;11.83;;
25982;SDS011;13773;48.868;10.730;2023-02-11T14:23:46;16.77;;;12.57;;
25982;SDS011;13773;48.868;10.730;2023-02-11T14:28:48;17.50;;;11.90;;
25982;SDS011;13773;48.868;10.730;2023-02-11T14:31:24;19.67;;;12.97;;
25982;SDS011;13773;48.868;10.730;2023-02-11T14:41:47;17.57;;;13.43;;
25982;SDS011;13773;48.868;10.730;2023-02-11T14:44:18;21.33;;;14.07;;
25982;SDS011;13773;48.868;10.730;2023-02-11T14:46:51;22.40;;;15.47;;
25982;SDS011;13773;48.868;10.730;2023-02-11T14:51:55;25.70;;;15.90;;
25982;SDS011;13773;48.868;10.730;2023-02-11T14:54:31;21.90;;;15.30;;
25982;SDS011;13773;48.868;10.730;2023-02-11T14:57:14;32.73;;;21.20;;
25982;SDS011;13773;48.868;10.730;2023-02-11T14:59:53;21.60;;;16.67;;
25982;SDS011;13773;48.868;10.730;2023-02-11T15:02:25;23.47;;;16.37;;
25982;SDS011;13773;48.868;10.730;2023-02-11T15:05:12;22.20;;;15.37;;
25982;SDS011;13773;48.868;10.730;2023-02-11T15:08:04;19.33;;;14.70;;
25982;SDS011;13773;48.868;10.730;2023-02-11T15:10:31;19.53;;;15.07;;
25982;SDS011;13773;48.868;10.730;2023-02-11T15:13:05;24.70;;;17.57;;
25982;SDS011;13773;48.868;10.730;2023-02-11T15:15:31;20.00;;;15.20;;
25982;SDS011;13773;48.868;10.730;2023-02-11T15:18:00;28.77;;;19.87;;
25982;SDS011;13773;48.868;10.730;2023-02-11T15:20:29;34.57;;;21.67;;
25982;SDS011;13773;48.868;10.730;2023-02-11T15:22:57;25.90;;;16.10;;
25982;SDS011;13773;48.868;10.730;2023-02-11T15:25:25;28.70;;;16.87;;
25982;SDS011;13773;48.868;10.730;2023-02-11T15:27:53;23.97;;;15.90;;
25982;SDS011;13773;48.868;10.730;2023-02-11T15:32:50;21.40;;;15.43;;
25982;SDS011;13773;48.868;10.730;2023-02-11T15:35:23;19.73;;;14.47;;
25982;SDS011;13773;48.868;10.730;2023-02-11T15:37:52;21.53;;;15.30;;
25982;SDS011;13773;48.868;10.730;2023-02-11T15:40:21;21.73;;;15.20;;
25982;SDS011;13773;48.868;10.730;2023-02-11T15:42:55;20.47;;;14.87;;
25982;SDS011;13773;48.868;10.730;2023-02-11T15:45:39;23.87;;;15.90;;
25982;SDS011;13773;48.868;10.730;2023-02-11T15:48:12;21.97;;;16.10;;
25982;SDS011;13773;48.868;10.730;2023-02-11T15:50:41;24.90;;;16.90;;
25982;SDS011;13773;48.868;10.730;2023-02-11T15:55:51;25.60;;;17.50;;
25982;SDS011;13773;48.868;10.730;2023-02-11T15:58:21;28.47;;;19.33;;
25982;SDS011;13773;48.868;10.730;2023-02-11T16:00:48;29.13;;;17.30;;
25982;SDS011;13773;48.868;10.730;2023-02-11T16:03:23;27.63;;;19.03;;
25982;SDS011;13773;48.868;10.730;2023-02-11T16:05:52;23.97;;;18.53;;
25982;SDS011;13773;48.868;10.730;2023-02-11T16:11:01;27.23;;;18.70;;
25982;SDS011;13773;48.868;10.730;2023-02-11T16:13:42;25.73;;;18.03;;
25982;SDS011;13773;48.868;10.730;2023-02-11T16:16:22;27.70;;;18.53;;
25982;SDS011;13773;48.868;10.730;2023-02-11T16:18:53;26.63;;;17.63;;
25982;SDS011;13773;48.868;10.730;2023-02-11T16:21:31;24.83;;;17.43;;
25982;SDS011;13773;48.868;10.730;2023-02-11T16:24:03;25.33;;;18.33;;
25982;SDS011;13773;48.868;10.730;2023-02-11T16:26:32;28.03;;;18.67;;
25982;SDS011;13773;48.868;10.730;2023-02-11T16:29:10;27.90;;;19.00;;
25982;SDS011;13773;48.868;10.730;2023-02-11T16:31:40;28.07;;;19.70;;
25982;SDS011;13773;48.868;10.730;2023-02-11T16:34:16;25.57;;;17.50;;
25982;SDS011;13773;48.868;10.730;2023-02-11T16:36:43;27.77;;;17.70;;
25982;SDS011;13773;48.868;10.730;2023-02-11T16:39:10;32.63;;;22.43;;
25982;SDS011;13773;48.868;10.730;2023-02-11T16:41:36;45.40;;;29.50;;
25982;SDS011;13773;48.868;10.730;2023-02-11T16:44:01;34.00;;;23.53;;
25982;SDS011;13773;48.868;10.730;2023-02-11T16:46:27;35.60;;;23.63;;
25982;SDS011;13773;48.868;10.730;2023-02-11T16:48:54;42.83;;;25.13;;
25982;SDS011;13773;48.868;10.730;2023-02-11T16:51:21;35.53;;;23.73;;
25982;SDS011;13773;48.868;10.730;2023-02-11T16:53:47;30.90;;;22.17;;
25982;SDS011;13773;48.868;10.730;2023-02-11T16:56:14;36.30;;;22.90;;
25982;SDS011;13773;48.868;10.730;2023-02-11T16:58:41;38.07;;;24.07;;
25982;SDS011;13773;48.868;10.730;2023-02-11T17:01:07;42.13;;;24.27;;
25982;SDS011;13773;48.868;10.730;2023-02-11T17:03:33;52.17;;;26.60;;
25982;SDS011;13773;48.868;10.730;2023-02-11T17:06:05;44.87;;;24.50;;
25982;SDS011;13773;48.868;10.730;2023-02-11T17:08:35;44.93;;;25.60;;
25982;SDS011;13773;48.868;10.730;2023-02-11T17:11:01;43.83;;;28.17;;